sensor_id;sensor_type;location;lat;lon;timestamp;temperature;humidity
23073;DHT22;34865;51.046;3.732;2022-09-12T00:00:26;18.10;99.90
23073;DHT22;34865;51.046;3.732;2022-09-12T00:02:52;18.00;99.90
23073;DHT22;34865;51.046;3.732;2022-09-12T00:05:19;18.10;99.90
23073;DHT22;34865;51.046;3.732;2022-09-12T00:07:44;18.10;99.90
23073;DHT22;34865;51.046;3.732;2022-09-12T00:10:10;18.00;99.90
23073;DHT22;34865;51.046;3.732;2022-09-12T00:12:36;17.60;99.90
23073;DHT22;34865;51.046;3.732;2022-09-12T00:15:03;17.50;99.90
23073;DHT22;34865;51.046;3.732;2022-09-12T00:17:29;17.40;99.90
23073;DHT22;34865;51.046;3.732;2022-09-12T00:19:55;17.40;99.90
23073;DHT22;34865;51.046;3.732;2022-09-12T00:22:21;17.40;99.90
23073;DHT22;34865;51.046;3.732;2022-09-12T00:24:49;17.40;99.90
23073;DHT22;34865;51.046;3.732;2022-09-12T00:27:15;17.30;99.90
23073;DHT22;34865;51.046;3.732;2022-09-12T00:29:40;17.20;99.90
23073;DHT22;34865;51.046;3.732;2022-09-12T00:32:06;17.10;99.90
23073;DHT22;34865;51.046;3.732;2022-09-12T00:34:32;17.00;99.90
23073;DHT22;34865;51.046;3.732;2022-09-12T00:36:58;16.90;99.90
23073;DHT22;34865;51.046;3.732;2022-09-12T00:39:23;17.00;99.90
23073;DHT22;34865;51.046;3.732;2022-09-12T00:41:49;17.00;99.90
23073;DHT22;34865;51.046;3.732;2022-09-12T00:47:01;17.30;99.90
23073;DHT22;34865;51.046;3.732;2022-09-12T00:49:36;17.20;99.90
23073;DHT22;34865;51.046;3.732;2022-09-12T00:52:15;17.10;99.90
23073;DHT22;34865;51.046;3.732;2022-09-12T00:57:20;17.30;99.90
23073;DHT22;34865;51.046;3.732;2022-09-12T00:59:50;17.40;99.90
23073;DHT22;34865;51.046;3.732;2022-09-12T01:02:18;17.60;99.90
23073;DHT22;34865;51.046;3.732;2022-09-12T01:04:44;17.50;99.90
23073;DHT22;34865;51.046;3.732;2022-09-12T01:07:13;17.40;99.90
23073;DHT22;34865;51.046;3.732;2022-09-12T01:09:41;17.30;99.90
23073;DHT22;34865;51.046;3.732;2022-09-12T01:12:08;17.30;99.90
23073;DHT22;34865;51.046;3.732;2022-09-12T01:14:34;17.20;99.90
23073;DHT22;34865;51.046;3.732;2022-09-12T01:17:00;17.20;99.90
23073;DHT22;34865;51.046;3.732;2022-09-12T01:22:10;17.10;99.90
23073;DHT22;34865;51.046;3.732;2022-09-12T01:33:53;17.10;99.90
23073;DHT22;34865;51.046;3.732;2022-09-12T01:39:04;16.90;99.90
23073;DHT22;34865;51.046;3.732;2022-09-12T01:44:33;17.30;99.90
23073;DHT22;34865;51.046;3.732;2022-09-12T01:47:11;17.40;99.90
23073;DHT22;34865;51.046;3.732;2022-09-12T01:55:32;17.00;99.90
23073;DHT22;34865;51.046;3.732;2022-09-12T01:58:18;17.20;99.90
23073;DHT22;34865;51.046;3.732;2022-09-12T02:01:10;17.20;99.90
23073;DHT22;34865;51.046;3.732;2022-09-12T02:06:42;17.10;99.90
23073;DHT22;34865;51.046;3.732;2022-09-12T02:09:14;16.80;99.90
23073;DHT22;34865;51.046;3.732;2022-09-12T02:11:43;16.70;99.90
23073;DHT22;34865;51.046;3.732;2022-09-12T02:14:22;16.50;99.90
23073;DHT22;34865;51.046;3.732;2022-09-12T02:17:02;16.60;99.90
23073;DHT22;34865;51.046;3.732;2022-09-12T02:19:54;16.70;99.90
23073;DHT22;34865;51.046;3.732;2022-09-12T02:22:22;16.80;99.90
23073;DHT22;34865;51.046;3.732;2022-09-12T02:24:52;17.00;99.90
23073;DHT22;34865;51.046;3.732;2022-09-12T02:27:31;17.10;99.90
23073;DHT22;34865;51.046;3.732;2022-09-12T02:29:59;17.10;99.90
23073;DHT22;34865;51.046;3.732;2022-09-12T02:40:49;16.80;99.90
23073;DHT22;34865;51.046;3.732;2022-09-12T02:43:15;17.00;99.90
23073;DHT22;34865;51.046;3.732;2022-09-12T02:45:40;16.80;99.90
23073;DHT22;34865;51.046;3.732;2022-09-12T02:48:13;16.50;99.90
23073;DHT22;34865;51.046;3.732;2022-09-12T02:50:41;16.40;99.90
23073;DHT22;34865;51.046;3.732;2022-09-12T02:53:08;16.30;99.90
23073;DHT22;34865;51.046;3.732;2022-09-12T02:55:36;16.30;99.90
23073;DHT22;34865;51.046;3.732;2022-09-12T02:58:05;16.40;99.90
23073;DHT22;34865;51.046;3.732;2022-09-12T03:06:36;16.50;99.90
23073;DHT22;34865;51.046;3.732;2022-09-12T03:11:50;16.50;99.90
23073;DHT22;34865;51.046;3.732;2022-09-12T03:14:55;16.40;99.90
23073;DHT22;34865;51.046;3.732;2022-09-12T03:17:53;16.20;99.90
23073;DHT22;34865;51.046;3.732;2022-09-12T03:20:59;16.10;99.90
23073;DHT22;34865;51.046;3.732;2022-09-12T03:23:33;16.00;99.90
23073;DHT22;34865;51.046;3.732;2022-09-12T03:26:10;16.20;99.90
23073;DHT22;34865;51.046;3.732;2022-09-12T03:28:37;16.50;99.90
23073;DHT22;34865;51.046;3.732;2022-09-12T03:31:18;16.70;99.90
23073;DHT22;34865;51.046;3.732;2022-09-12T03:33:44;16.80;99.90
23073;DHT22;34865;51.046;3.732;2022-09-12T03:36:23;16.80;99.90
23073;DHT22;34865;51.046;3.732;2022-09-12T03:38:49;16.80;99.90
23073;DHT22;34865;51.046;3.732;2022-09-12T03:41:15;16.90;99.90
23073;DHT22;34865;51.046;3.732;2022-09-12T03:43:41;16.80;99.90
23073;DHT22;34865;51.046;3.732;2022-09-12T03:46:07;16.80;99.90
23073;DHT22;34865;51.046;3.732;2022-09-12T03:48:35;16.70;99.90
23073;DHT22;34865;51.046;3.732;2022-09-12T03:51:02;16.40;99.90
23073;DHT22;34865;51.046;3.732;2022-09-12T03:53:28;16.30;99.90
23073;DHT22;34865;51.046;3.732;2022-09-12T03:55:55;16.30;99.90
23073;DHT22;34865;51.046;3.732;2022-09-12T03:58:21;16.30;99.90
23073;DHT22;34865;51.046;3.732;2022-09-12T04:00:46;16.40;99.90
23073;DHT22;34865;51.046;3.732;2022-09-12T04:03:12;16.30;99.90
23073;DHT22;34865;51.046;3.732;2022-09-12T04:05:38;16.30;99.90
23073;DHT22;34865;51.046;3.732;2022-09-12T04:08:04;16.30;99.90
23073;DHT22;34865;51.046;3.732;2022-09-12T04:10:30;16.30;99.90
23073;DHT22;34865;51.046;3.732;2022-09-12T04:12:56;16.30;99.90
23073;DHT22;34865;51.046;3.732;2022-09-12T04:15:22;16.30;99.90
23073;DHT22;34865;51.046;3.732;2022-09-12T04:17:48;16.50;99.90
23073;DHT22;34865;51.046;3.732;2022-09-12T04:20:14;16.40;99.90
23073;DHT22;34865;51.046;3.732;2022-09-12T04:22:39;16.30;99.90
23073;DHT22;34865;51.046;3.732;2022-09-12T04:25:06;16.20;99.90
23073;DHT22;34865;51.046;3.732;2022-09-12T04:27:32;16.30;99.90
23073;DHT22;34865;51.046;3.732;2022-09-12T04:29:59;16.30;99.90
23073;DHT22;34865;51.046;3.732;2022-09-12T04:32:25;16.20;99.90
23073;DHT22;34865;51.046;3.732;2022-09-12T04:34:51;16.20;99.90
23073;DHT22;34865;51.046;3.732;2022-09-12T04:37:20;16.20;99.90
23073;DHT22;34865;51.046;3.732;2022-09-12T04:39:48;16.30;99.90
23073;DHT22;34865;51.046;3.732;2022-09-12T04:42:14;16.40;99.90
23073;DHT22;34865;51.046;3.732;2022-09-12T04:44:40;16.30;99.90
23073;DHT22;34865;51.046;3.732;2022-09-12T04:47:06;16.30;99.90
23073;DHT22;34865;51.046;3.732;2022-09-12T04:49:32;16.30;99.90
23073;DHT22;34865;51.046;3.732;2022-09-12T04:51:58;16.20;99.90
23073;DHT22;34865;51.046;3.732;2022-09-12T04:54:27;16.10;99.90
23073;DHT22;34865;51.046;3.732;2022-09-12T04:56:52;16.10;99.90
23073;DHT22;34865;51.046;3.732;2022-09-12T04:59:20;16.10;99.90
23073;DHT22;34865;51.046;3.732;2022-09-12T05:01:46;16.00;99.90
23073;DHT22;34865;51.046;3.732;2022-09-12T05:04:13;16.00;99.90
23073;DHT22;34865;51.046;3.732;2022-09-12T05:06:40;15.90;99.90
23073;DHT22;34865;51.046;3.732;2022-09-12T05:09:07;16.10;99.90
23073;DHT22;34865;51.046;3.732;2022-09-12T05:11:36;16.20;99.90
23073;DHT22;34865;51.046;3.732;2022-09-12T05:14:02;16.20;99.90
23073;DHT22;34865;51.046;3.732;2022-09-12T05:16:28;16.30;99.90
23073;DHT22;34865;51.046;3.732;2022-09-12T05:18:56;16.20;99.90
23073;DHT22;34865;51.046;3.732;2022-09-12T05:21:23;16.40;99.90
23073;DHT22;34865;51.046;3.732;2022-09-12T05:23:55;16.30;99.90
23073;DHT22;34865;51.046;3.732;2022-09-12T05:26:21;16.40;99.90
23073;DHT22;34865;51.046;3.732;2022-09-12T05:28:49;16.40;99.90
23073;DHT22;34865;51.046;3.732;2022-09-12T05:31:24;16.20;99.90
23073;DHT22;34865;51.046;3.732;2022-09-12T05:33:51;16.10;99.90
23073;DHT22;34865;51.046;3.732;2022-09-12T05:38:48;16.00;99.90
23073;DHT22;34865;51.046;3.732;2022-09-12T05:41:17;16.00;99.90
23073;DHT22;34865;51.046;3.732;2022-09-12T05:43:44;16.00;99.90
23073;DHT22;34865;51.046;3.732;2022-09-12T05:46:15;15.90;99.90
23073;DHT22;34865;51.046;3.732;2022-09-12T05:48:43;15.90;99.90
23073;DHT22;34865;51.046;3.732;2022-09-12T05:53:41;15.90;99.90
23073;DHT22;34865;51.046;3.732;2022-09-12T05:56:13;15.90;99.90
23073;DHT22;34865;51.046;3.732;2022-09-12T05:58:43;15.90;99.90
23073;DHT22;34865;51.046;3.732;2022-09-12T06:01:11;16.00;99.90
23073;DHT22;34865;51.046;3.732;2022-09-12T06:03:45;16.10;99.90
23073;DHT22;34865;51.046;3.732;2022-09-12T06:06:12;16.20;99.90
23073;DHT22;34865;51.046;3.732;2022-09-12T06:08:42;16.10;99.90
23073;DHT22;34865;51.046;3.732;2022-09-12T06:11:10;16.00;99.90
23073;DHT22;34865;51.046;3.732;2022-09-12T06:13:38;16.10;99.90
23073;DHT22;34865;51.046;3.732;2022-09-12T06:16:09;16.20;99.90
23073;DHT22;34865;51.046;3.732;2022-09-12T06:18:35;16.20;99.90
23073;DHT22;34865;51.046;3.732;2022-09-12T06:21:06;16.20;99.90
23073;DHT22;34865;51.046;3.732;2022-09-12T06:23:32;16.30;99.90
23073;DHT22;34865;51.046;3.732;2022-09-12T06:25:59;16.30;99.90
23073;DHT22;34865;51.046;3.732;2022-09-12T06:28:25;16.50;99.90
23073;DHT22;34865;51.046;3.732;2022-09-12T06:30:51;16.50;99.90
23073;DHT22;34865;51.046;3.732;2022-09-12T06:33:17;16.60;99.90
23073;DHT22;34865;51.046;3.732;2022-09-12T06:35:44;16.70;99.90
23073;DHT22;34865;51.046;3.732;2022-09-12T06:38:09;16.90;99.90
23073;DHT22;34865;51.046;3.732;2022-09-12T06:40:44;17.10;99.90
23073;DHT22;34865;51.046;3.732;2022-09-12T06:43:13;17.20;99.90
23073;DHT22;34865;51.046;3.732;2022-09-12T06:45:38;17.40;99.90
23073;DHT22;34865;51.046;3.732;2022-09-12T06:48:04;17.50;99.90
23073;DHT22;34865;51.046;3.732;2022-09-12T06:50:30;17.70;99.90
23073;DHT22;34865;51.046;3.732;2022-09-12T06:52:56;17.70;99.90
23073;DHT22;34865;51.046;3.732;2022-09-12T06:55:21;18.00;99.90
23073;DHT22;34865;51.046;3.732;2022-09-12T06:57:49;18.00;99.90
23073;DHT22;34865;51.046;3.732;2022-09-12T07:00:15;18.00;99.90
23073;DHT22;34865;51.046;3.732;2022-09-12T07:02:40;17.90;99.90
23073;DHT22;34865;51.046;3.732;2022-09-12T07:05:06;18.10;99.90
23073;DHT22;34865;51.046;3.732;2022-09-12T07:07:33;18.00;99.90
23073;DHT22;34865;51.046;3.732;2022-09-12T07:10:00;18.10;99.90
23073;DHT22;34865;51.046;3.732;2022-09-12T07:12:29;18.20;99.90
23073;DHT22;34865;51.046;3.732;2022-09-12T07:14:54;18.30;99.90
23073;DHT22;34865;51.046;3.732;2022-09-12T07:17:20;18.40;99.90
23073;DHT22;34865;51.046;3.732;2022-09-12T07:19:45;18.40;99.90
23073;DHT22;34865;51.046;3.732;2022-09-12T07:22:11;18.60;99.90
23073;DHT22;34865;51.046;3.732;2022-09-12T07:24:37;18.70;99.90
23073;DHT22;34865;51.046;3.732;2022-09-12T07:27:04;18.80;99.90
23073;DHT22;34865;51.046;3.732;2022-09-12T07:29:30;18.90;99.90
23073;DHT22;34865;51.046;3.732;2022-09-12T07:31:55;18.90;99.90
23073;DHT22;34865;51.046;3.732;2022-09-12T07:34:21;19.00;99.90
23073;DHT22;34865;51.046;3.732;2022-09-12T07:36:47;19.20;99.90
23073;DHT22;34865;51.046;3.732;2022-09-12T07:39:13;19.50;99.90
23073;DHT22;34865;51.046;3.732;2022-09-12T07:41:38;19.70;99.90
23073;DHT22;34865;51.046;3.732;2022-09-12T07:44:04;19.90;99.90
23073;DHT22;34865;51.046;3.732;2022-09-12T07:46:31;19.90;99.90
23073;DHT22;34865;51.046;3.732;2022-09-12T07:48:58;19.80;99.90
23073;DHT22;34865;51.046;3.732;2022-09-12T07:51:26;19.80;99.90
23073;DHT22;34865;51.046;3.732;2022-09-12T07:53:52;19.90;99.90
23073;DHT22;34865;51.046;3.732;2022-09-12T07:56:18;20.10;99.90
23073;DHT22;34865;51.046;3.732;2022-09-12T07:58:44;20.20;99.90
23073;DHT22;34865;51.046;3.732;2022-09-12T08:01:15;20.90;99.90
23073;DHT22;34865;51.046;3.732;2022-09-12T08:03:42;22.10;99.90
23073;DHT22;34865;51.046;3.732;2022-09-12T08:06:16;22.90;99.90
23073;DHT22;34865;51.046;3.732;2022-09-12T08:08:48;23.30;99.90
23073;DHT22;34865;51.046;3.732;2022-09-12T08:11:16;23.50;99.90
23073;DHT22;34865;51.046;3.732;2022-09-12T08:13:42;23.40;99.90
23073;DHT22;34865;51.046;3.732;2022-09-12T08:16:13;23.40;99.90
23073;DHT22;34865;51.046;3.732;2022-09-12T08:18:40;24.70;99.90
23073;DHT22;34865;51.046;3.732;2022-09-12T08:21:12;26.20;99.90
23073;DHT22;34865;51.046;3.732;2022-09-12T08:23:38;27.20;99.90
23073;DHT22;34865;51.046;3.732;2022-09-12T08:26:04;28.50;99.90
23073;DHT22;34865;51.046;3.732;2022-09-12T08:28:32;30.40;99.90
23073;DHT22;34865;51.046;3.732;2022-09-12T08:33:27;31.90;99.90
23073;DHT22;34865;51.046;3.732;2022-09-12T08:36:09;32.60;99.90
23073;DHT22;34865;51.046;3.732;2022-09-12T08:38:37;33.80;99.90
23073;DHT22;34865;51.046;3.732;2022-09-12T08:41:06;34.10;99.90
23073;DHT22;34865;51.046;3.732;2022-09-12T08:46:22;33.90;99.90
23073;DHT22;34865;51.046;3.732;2022-09-12T08:48:49;34.40;99.90
23073;DHT22;34865;51.046;3.732;2022-09-12T08:51:17;34.40;99.90
23073;DHT22;34865;51.046;3.732;2022-09-12T08:53:46;34.70;99.90
23073;DHT22;34865;51.046;3.732;2022-09-12T08:56:14;34.60;99.90
23073;DHT22;34865;51.046;3.732;2022-09-12T08:58:43;33.70;99.90
23073;DHT22;34865;51.046;3.732;2022-09-12T09:01:31;33.30;99.90
23073;DHT22;34865;51.046;3.732;2022-09-12T09:04:30;32.80;99.90
23073;DHT22;34865;51.046;3.732;2022-09-12T09:15:53;34.10;99.90
23073;DHT22;34865;51.046;3.732;2022-09-12T09:18:28;33.10;99.90
23073;DHT22;34865;51.046;3.732;2022-09-12T09:21:11;32.00;99.90
23073;DHT22;34865;51.046;3.732;2022-09-12T09:23:41;32.10;99.90
23073;DHT22;34865;51.046;3.732;2022-09-12T09:26:28;31.50;99.90
23073;DHT22;34865;51.046;3.732;2022-09-12T09:29:19;31.50;99.90
23073;DHT22;34865;51.046;3.732;2022-09-12T09:31:51;31.30;99.90
23073;DHT22;34865;51.046;3.732;2022-09-12T09:34:20;29.90;99.90
23073;DHT22;34865;51.046;3.732;2022-09-12T09:36:51;30.30;99.90
23073;DHT22;34865;51.046;3.732;2022-09-12T09:44:59;29.90;99.90
23073;DHT22;34865;51.046;3.732;2022-09-12T09:47:27;30.20;99.90
23073;DHT22;34865;51.046;3.732;2022-09-12T09:49:52;29.80;99.90
23073;DHT22;34865;51.046;3.732;2022-09-12T09:52:26;29.80;99.90
23073;DHT22;34865;51.046;3.732;2022-09-12T09:54:59;29.80;99.90
23073;DHT22;34865;51.046;3.732;2022-09-12T09:57:39;30.10;99.90
23073;DHT22;34865;51.046;3.732;2022-09-12T10:00:25;30.40;99.90
23073;DHT22;34865;51.046;3.732;2022-09-12T10:05:51;30.20;99.90
23073;DHT22;34865;51.046;3.732;2022-09-12T10:08:31;29.90;99.90
23073;DHT22;34865;51.046;3.732;2022-09-12T10:16:23;29.80;99.90
23073;DHT22;34865;51.046;3.732;2022-09-12T10:18:51;29.80;99.90
23073;DHT22;34865;51.046;3.732;2022-09-12T10:23:45;29.30;99.90
23073;DHT22;34865;51.046;3.732;2022-09-12T10:26:14;29.20;99.90
23073;DHT22;34865;51.046;3.732;2022-09-12T10:28:47;29.30;99.90
23073;DHT22;34865;51.046;3.732;2022-09-12T10:31:16;29.50;99.90
23073;DHT22;34865;51.046;3.732;2022-09-12T10:33:49;28.60;99.90
23073;DHT22;34865;51.046;3.732;2022-09-12T10:36:20;28.40;99.90
23073;DHT22;34865;51.046;3.732;2022-09-12T10:38:53;28.10;99.90
23073;DHT22;34865;51.046;3.732;2022-09-12T10:41:20;27.60;99.90
23073;DHT22;34865;51.046;3.732;2022-09-12T10:43:46;26.90;99.90
23073;DHT22;34865;51.046;3.732;2022-09-12T10:48:45;26.30;99.90
23073;DHT22;34865;51.046;3.732;2022-09-12T10:53:58;25.70;99.90
23073;DHT22;34865;51.046;3.732;2022-09-12T10:56:31;25.20;99.90
23073;DHT22;34865;51.046;3.732;2022-09-12T11:10:26;25.20;99.90
23073;DHT22;34865;51.046;3.732;2022-09-12T11:29:53;25.20;99.90
23073;DHT22;34865;51.046;3.732;2022-09-12T11:32:28;25.00;99.90
23073;DHT22;34865;51.046;3.732;2022-09-12T11:51:33;25.40;99.90
23073;DHT22;34865;51.046;3.732;2022-09-12T11:56:59;25.40;99.90
23073;DHT22;34865;51.046;3.732;2022-09-12T12:00:05;25.50;99.90
23073;DHT22;34865;51.046;3.732;2022-09-12T12:02:38;25.50;99.90
23073;DHT22;34865;51.046;3.732;2022-09-12T12:07:56;25.40;99.90
23073;DHT22;34865;51.046;3.732;2022-09-12T12:13:20;25.10;99.90
23073;DHT22;34865;51.046;3.732;2022-09-12T12:15:51;25.20;99.90
23073;DHT22;34865;51.046;3.732;2022-09-12T12:18:22;25.20;99.90
23073;DHT22;34865;51.046;3.732;2022-09-12T12:20:49;25.40;99.90
23073;DHT22;34865;51.046;3.732;2022-09-12T12:25:58;25.20;99.90
23073;DHT22;34865;51.046;3.732;2022-09-12T12:31:16;25.30;99.90
23073;DHT22;34865;51.046;3.732;2022-09-12T12:36:39;25.80;99.90
23073;DHT22;34865;51.046;3.732;2022-09-12T12:42:00;26.30;99.90
23073;DHT22;34865;51.046;3.732;2022-09-12T12:47:22;26.00;99.90
23073;DHT22;34865;51.046;3.732;2022-09-12T12:49:54;26.10;99.90
23073;DHT22;34865;51.046;3.732;2022-09-12T12:52:21;26.00;99.90
23073;DHT22;34865;51.046;3.732;2022-09-12T12:54:51;26.30;99.90
23073;DHT22;34865;51.046;3.732;2022-09-12T12:57:22;26.40;99.90
23073;DHT22;34865;51.046;3.732;2022-09-12T13:00:03;26.30;99.90
23073;DHT22;34865;51.046;3.732;2022-09-12T13:02:34;26.30;99.90
23073;DHT22;34865;51.046;3.732;2022-09-12T13:05:05;26.30;99.90
23073;DHT22;34865;51.046;3.732;2022-09-12T13:07:37;26.30;99.90
23073;DHT22;34865;51.046;3.732;2022-09-12T13:10:06;26.40;99.90
23073;DHT22;34865;51.046;3.732;2022-09-12T13:12:51;26.50;99.90
23073;DHT22;34865;51.046;3.732;2022-09-12T13:18:05;26.60;99.90
23073;DHT22;34865;51.046;3.732;2022-09-12T13:20:36;26.60;99.90
23073;DHT22;34865;51.046;3.732;2022-09-12T13:23:21;26.50;99.90
23073;DHT22;34865;51.046;3.732;2022-09-12T13:25:55;26.30;99.90
23073;DHT22;34865;51.046;3.732;2022-09-12T13:28:22;26.10;99.90
23073;DHT22;34865;51.046;3.732;2022-09-12T13:33:39;26.10;99.90
23073;DHT22;34865;51.046;3.732;2022-09-12T13:39:13;26.10;99.90
23073;DHT22;34865;51.046;3.732;2022-09-12T13:47:45;26.10;99.90
23073;DHT22;34865;51.046;3.732;2022-09-12T13:50:20;26.10;99.90
23073;DHT22;34865;51.046;3.732;2022-09-12T13:53:11;26.10;99.90
23073;DHT22;34865;51.046;3.732;2022-09-12T13:55:41;26.00;99.90
23073;DHT22;34865;51.046;3.732;2022-09-12T14:00:45;25.60;99.90
23073;DHT22;34865;51.046;3.732;2022-09-12T14:03:50;25.70;99.90
23073;DHT22;34865;51.046;3.732;2022-09-12T14:06:55;25.60;99.90
23073;DHT22;34865;51.046;3.732;2022-09-12T14:09:30;25.70;99.90
23073;DHT22;34865;51.046;3.732;2022-09-12T14:11:57;25.80;99.90
23073;DHT22;34865;51.046;3.732;2022-09-12T14:14:32;25.90;99.90
23073;DHT22;34865;51.046;3.732;2022-09-12T14:16:59;25.70;99.90
23073;DHT22;34865;51.046;3.732;2022-09-12T14:19:25;25.70;99.90
23073;DHT22;34865;51.046;3.732;2022-09-12T14:21:54;25.80;99.90
23073;DHT22;34865;51.046;3.732;2022-09-12T14:24:20;25.90;99.90
23073;DHT22;34865;51.046;3.732;2022-09-12T14:26:53;25.90;99.90
23073;DHT22;34865;51.046;3.732;2022-09-12T14:29:21;25.70;99.90
23073;DHT22;34865;51.046;3.732;2022-09-12T14:32:00;25.70;99.90
23073;DHT22;34865;51.046;3.732;2022-09-12T14:34:27;25.60;99.90
23073;DHT22;34865;51.046;3.732;2022-09-12T14:36:54;25.70;99.90
23073;DHT22;34865;51.046;3.732;2022-09-12T14:39:40;25.80;99.90
23073;DHT22;34865;51.046;3.732;2022-09-12T14:42:18;25.80;99.90
23073;DHT22;34865;51.046;3.732;2022-09-12T14:44:55;25.80;99.90
23073;DHT22;34865;51.046;3.732;2022-09-12T14:47:24;26.00;99.90
23073;DHT22;34865;51.046;3.732;2022-09-12T14:49:50;26.00;99.90
23073;DHT22;34865;51.046;3.732;2022-09-12T14:52:29;25.90;99.90
23073;DHT22;34865;51.046;3.732;2022-09-12T14:55:17;26.00;99.90
23073;DHT22;34865;51.046;3.732;2022-09-12T14:57:44;26.00;99.90
23073;DHT22;34865;51.046;3.732;2022-09-12T15:00:20;25.90;99.90
23073;DHT22;34865;51.046;3.732;2022-09-12T15:02:47;25.90;99.90
23073;DHT22;34865;51.046;3.732;2022-09-12T15:05:17;25.70;99.90
23073;DHT22;34865;51.046;3.732;2022-09-12T15:10:24;25.70;99.90
23073;DHT22;34865;51.046;3.732;2022-09-12T15:15:29;25.80;99.90
23073;DHT22;34865;51.046;3.732;2022-09-12T15:17:55;25.70;99.90
23073;DHT22;34865;51.046;3.732;2022-09-12T15:20:20;25.70;99.90
23073;DHT22;34865;51.046;3.732;2022-09-12T15:22:46;25.80;99.90
23073;DHT22;34865;51.046;3.732;2022-09-12T15:25:12;25.80;99.90
23073;DHT22;34865;51.046;3.732;2022-09-12T15:27:38;25.80;99.90
23073;DHT22;34865;51.046;3.732;2022-09-12T15:30:06;25.90;99.90
23073;DHT22;34865;51.046;3.732;2022-09-12T15:32:33;26.00;99.90
23073;DHT22;34865;51.046;3.732;2022-09-12T15:34:58;26.00;99.90
23073;DHT22;34865;51.046;3.732;2022-09-12T15:37:24;26.10;99.90
23073;DHT22;34865;51.046;3.732;2022-09-12T15:39:50;26.10;99.90
23073;DHT22;34865;51.046;3.732;2022-09-12T15:42:18;26.20;99.90
23073;DHT22;34865;51.046;3.732;2022-09-12T15:44:49;26.30;99.90
23073;DHT22;34865;51.046;3.732;2022-09-12T15:47:14;26.30;99.90
23073;DHT22;34865;51.046;3.732;2022-09-12T15:49:40;26.20;99.90
23073;DHT22;34865;51.046;3.732;2022-09-12T15:52:08;26.10;99.90
23073;DHT22;34865;51.046;3.732;2022-09-12T15:54:38;26.10;99.90
23073;DHT22;34865;51.046;3.732;2022-09-12T15:57:03;26.00;99.90
23073;DHT22;34865;51.046;3.732;2022-09-12T15:59:29;26.00;99.90
23073;DHT22;34865;51.046;3.732;2022-09-12T16:01:55;26.00;99.90
23073;DHT22;34865;51.046;3.732;2022-09-12T16:04:26;25.90;99.90
23073;DHT22;34865;51.046;3.732;2022-09-12T16:06:53;25.80;99.90
23073;DHT22;34865;51.046;3.732;2022-09-12T16:09:19;25.70;99.90
23073;DHT22;34865;51.046;3.732;2022-09-12T16:11:45;25.70;99.90
23073;DHT22;34865;51.046;3.732;2022-09-12T16:14:15;25.80;99.90
23073;DHT22;34865;51.046;3.732;2022-09-12T16:16:42;25.90;99.90
23073;DHT22;34865;51.046;3.732;2022-09-12T16:19:08;25.90;99.90
23073;DHT22;34865;51.046;3.732;2022-09-12T16:21:35;25.90;99.90
23073;DHT22;34865;51.046;3.732;2022-09-12T16:24:01;25.80;99.90
23073;DHT22;34865;51.046;3.732;2022-09-12T16:26:27;25.80;99.90
23073;DHT22;34865;51.046;3.732;2022-09-12T16:28:54;25.80;99.90
23073;DHT22;34865;51.046;3.732;2022-09-12T16:31:20;25.80;99.90
23073;DHT22;34865;51.046;3.732;2022-09-12T16:33:47;25.90;99.90
23073;DHT22;34865;51.046;3.732;2022-09-12T16:36:14;25.90;99.90
23073;DHT22;34865;51.046;3.732;2022-09-12T16:38:48;25.90;99.90
23073;DHT22;34865;51.046;3.732;2022-09-12T16:41:15;26.00;99.90
23073;DHT22;34865;51.046;3.732;2022-09-12T16:43:41;26.00;99.90
23073;DHT22;34865;51.046;3.732;2022-09-12T16:46:10;25.90;99.90
23073;DHT22;34865;51.046;3.732;2022-09-12T16:48:36;25.90;99.90
23073;DHT22;34865;51.046;3.732;2022-09-12T16:51:04;25.90;99.90
23073;DHT22;34865;51.046;3.732;2022-09-12T16:53:36;25.90;99.90
23073;DHT22;34865;51.046;3.732;2022-09-12T16:56:02;25.90;99.90
23073;DHT22;34865;51.046;3.732;2022-09-12T16:58:31;25.80;99.90
23073;DHT22;34865;51.046;3.732;2022-09-12T17:01:29;25.80;99.90
23073;DHT22;34865;51.046;3.732;2022-09-12T17:03:58;25.80;99.90
23073;DHT22;34865;51.046;3.732;2022-09-12T17:06:25;25.90;99.90
23073;DHT22;34865;51.046;3.732;2022-09-12T17:08:54;25.90;99.90
23073;DHT22;34865;51.046;3.732;2022-09-12T17:11:29;25.80;99.90
23073;DHT22;34865;51.046;3.732;2022-09-12T17:13:57;25.70;99.90
23073;DHT22;34865;51.046;3.732;2022-09-12T17:16:24;25.60;99.90
23073;DHT22;34865;51.046;3.732;2022-09-12T17:18:51;25.60;99.90
23073;DHT22;34865;51.046;3.732;2022-09-12T17:21:23;25.50;99.90
23073;DHT22;34865;51.046;3.732;2022-09-12T17:23:49;25.40;99.90
23073;DHT22;34865;51.046;3.732;2022-09-12T17:26:15;25.40;99.90
23073;DHT22;34865;51.046;3.732;2022-09-12T17:28:42;25.40;99.90
23073;DHT22;34865;51.046;3.732;2022-09-12T17:31:11;25.30;99.90
23073;DHT22;34865;51.046;3.732;2022-09-12T17:33:37;25.30;99.90
23073;DHT22;34865;51.046;3.732;2022-09-12T17:36:07;25.10;99.90
23073;DHT22;34865;51.046;3.732;2022-09-12T17:38:38;25.10;99.90
23073;DHT22;34865;51.046;3.732;2022-09-12T17:41:12;25.00;99.90
23073;DHT22;34865;51.046;3.732;2022-09-12T17:43:40;25.00;99.90
23073;DHT22;34865;51.046;3.732;2022-09-12T17:46:06;24.90;99.90
23073;DHT22;34865;51.046;3.732;2022-09-12T17:48:33;25.00;99.90
23073;DHT22;34865;51.046;3.732;2022-09-12T17:51:13;25.00;99.90
23073;DHT22;34865;51.046;3.732;2022-09-12T17:53:40;24.90;99.90
23073;DHT22;34865;51.046;3.732;2022-09-12T17:56:15;24.90;99.90
23073;DHT22;34865;51.046;3.732;2022-09-12T17:58:41;24.90;99.90
23073;DHT22;34865;51.046;3.732;2022-09-12T18:01:14;24.90;99.90
23073;DHT22;34865;51.046;3.732;2022-09-12T18:04:02;24.80;99.90
23073;DHT22;34865;51.046;3.732;2022-09-12T18:06:31;24.70;99.90
23073;DHT22;34865;51.046;3.732;2022-09-12T18:09:06;24.60;99.90
23073;DHT22;34865;51.046;3.732;2022-09-12T18:11:34;24.50;99.90
23073;DHT22;34865;51.046;3.732;2022-09-12T18:14:00;24.30;99.90
23073;DHT22;34865;51.046;3.732;2022-09-12T18:16:26;24.40;99.90
23073;DHT22;34865;51.046;3.732;2022-09-12T18:18:57;24.40;99.90
23073;DHT22;34865;51.046;3.732;2022-09-12T18:21:26;24.40;99.90
23073;DHT22;34865;51.046;3.732;2022-09-12T18:23:52;24.40;99.90
23073;DHT22;34865;51.046;3.732;2022-09-12T18:26:19;24.40;99.90
23073;DHT22;34865;51.046;3.732;2022-09-12T18:28:45;24.30;99.90
23073;DHT22;34865;51.046;3.732;2022-09-12T18:31:13;24.30;99.90
23073;DHT22;34865;51.046;3.732;2022-09-12T18:33:41;24.20;99.90
23073;DHT22;34865;51.046;3.732;2022-09-12T18:36:11;24.20;99.90
23073;DHT22;34865;51.046;3.732;2022-09-12T18:38:41;24.10;99.90
23073;DHT22;34865;51.046;3.732;2022-09-12T18:41:18;24.00;99.90
23073;DHT22;34865;51.046;3.732;2022-09-12T18:43:45;24.00;99.90
23073;DHT22;34865;51.046;3.732;2022-09-12T18:46:16;23.80;99.90